Agricola, Mississippi
Current Conditions -  °F | °C
As of 9:56 AM on Monday 26 Jan 2015 (Local Time) from KMOB Reporting Station
Few Clouds Few Clouds  
Wind Chill: 10°   Ceiling: Unl
Heat Index: 10°   Visibility: 10mi
Dew Point:   Wind: 12mph
Humidity: 59%   Direction: 330°NNW
Pressure: 30.08"   Gusts: 21mph
Location:  30.8443°N, 88.5703°W
Report Text: KMOB 261556Z 33010G18KT 10SM FEW035 FEW200 10/02 A3008 RMK AO2 SLP186 T01000022
Loading
Personal Weather Stations






























Interactive Weather Map New forecast layout! Learn more

10-Day Weather Forecast

Advertisements
Track Severe Weather on mobile